RJTR(METAR)
10/21 03:58
METAR RJTR 201858Z AUTO 33007KT 10SM SCT033 SCT046 BKN055 13/10 A3027
RMK AO2 SLP252 T01250099 $=
戻る
トップページへ戻る
IMOC Co,.Ltd.